sensor_id;sensor_type;location;lat;lon;timestamp;pressure;altitude;pressure_sealevel;temperature;humidity
8890;BME280;4481;43.406;24.454;2023-02-19T00:01:18;77918.41;;;-144.09;93.03
8890;BME280;4481;43.406;24.454;2023-02-19T00:03:48;77922.59;;;-144.09;93.14
8890;BME280;4481;43.406;24.454;2023-02-19T00:06:14;77924.69;;;-144.09;93.40
8890;BME280;4481;43.406;24.454;2023-02-19T00:08:40;77910.06;;;-144.09;93.17
8890;BME280;4481;43.406;24.454;2023-02-19T00:11:10;77930.97;;;-144.09;93.99
8890;BME280;4481;43.406;24.454;2023-02-19T00:13:37;77903.78;;;-144.09;92.73
8890;BME280;4481;43.406;24.454;2023-02-19T00:16:05;77912.16;;;-144.09;93.50
8890;BME280;4481;43.406;24.454;2023-02-19T00:18:31;77891.25;;;-144.09;93.19
8890;BME280;4481;43.406;24.454;2023-02-19T00:20:57;77903.78;;;-144.09;93.39
8890;BME280;4481;43.406;24.454;2023-02-19T00:23:23;77884.97;;;-144.09;92.27
8890;BME280;4481;43.406;24.454;2023-02-19T00:25:51;77901.69;;;-144.09;92.54
8890;BME280;4481;43.406;24.454;2023-02-19T00:28:18;77926.78;;;-144.09;93.20
8890;BME280;4481;43.406;24.454;2023-02-19T00:30:44;77943.50;;;-144.09;93.32
8890;BME280;4481;43.406;24.454;2023-02-19T00:33:10;77945.59;;;-144.09;93.73
8890;BME280;4481;43.406;24.454;2023-02-19T00:35:36;77949.78;;;-144.09;94.26
8890;BME280;4481;43.406;24.454;2023-02-19T00:38:03;77960.22;;;-144.09;94.92
8890;BME280;4481;43.406;24.454;2023-02-19T00:40:29;77960.22;;;-144.09;95.03
8890;BME280;4481;43.406;24.454;2023-02-19T00:42:55;77939.31;;;-144.09;93.69
8890;BME280;4481;43.406;24.454;2023-02-19T00:45:22;77949.78;;;-144.09;94.32
8890;BME280;4481;43.406;24.454;2023-02-19T00:47:48;77968.59;;;-144.09;94.89
8890;BME280;4481;43.406;24.454;2023-02-19T00:50:15;77981.13;;;-144.09;95.14
8890;BME280;4481;43.406;24.454;2023-02-19T00:52:41;77991.59;;;-144.09;95.43
8890;BME280;4481;43.406;24.454;2023-02-19T00:55:07;77974.84;;;-144.09;94.93
8890;BME280;4481;43.406;24.454;2023-02-19T00:57:33;77968.59;;;-144.09;94.85
8890;BME280;4481;43.406;24.454;2023-02-19T00:59:59;77943.50;;;-144.09;94.43
8890;BME280;4481;43.406;24.454;2023-02-19T01:02:26;77964.41;;;-144.09;94.79
8890;BME280;4481;43.406;24.454;2023-02-19T01:04:52;77966.50;;;-144.09;95.49
8890;BME280;4481;43.406;24.454;2023-02-19T01:07:18;77960.22;;;-144.09;95.56
8890;BME280;4481;43.406;24.454;2023-02-19T01:09:44;77945.59;;;-144.09;95.17
8890;BME280;4481;43.406;24.454;2023-02-19T01:12:10;77928.88;;;-144.09;94.20
8890;BME280;4481;43.406;24.454;2023-02-19T01:14:37;77949.78;;;-144.09;94.15
8890;BME280;4481;43.406;24.454;2023-02-19T01:17:03;77968.59;;;-144.09;94.71
8890;BME280;4481;43.406;24.454;2023-02-19T01:19:29;77968.59;;;-144.09;94.54
8890;BME280;4481;43.406;24.454;2023-02-19T01:21:56;77972.78;;;-144.09;95.48
8890;BME280;4481;43.406;24.454;2023-02-19T01:24:22;77981.13;;;-144.09;95.68
8890;BME280;4481;43.406;24.454;2023-02-19T01:26:48;77985.31;;;-144.09;96.16
8890;BME280;4481;43.406;24.454;2023-02-19T01:29:14;77968.59;;;-144.09;95.39
8890;BME280;4481;43.406;24.454;2023-02-19T01:31:40;77970.69;;;-144.09;95.37
8890;BME280;4481;43.406;24.454;2023-02-19T01:34:09;77976.94;;;-144.09;95.35
8890;BME280;4481;43.406;24.454;2023-02-19T01:36:36;77972.78;;;-144.09;95.06
8890;BME280;4481;43.406;24.454;2023-02-19T01:39:04;77945.59;;;-144.09;94.79
8890;BME280;4481;43.406;24.454;2023-02-19T01:41:33;77956.03;;;-144.09;94.95
8890;BME280;4481;43.406;24.454;2023-02-19T01:44:01;77981.13;;;-144.09;95.04
8890;BME280;4481;43.406;24.454;2023-02-19T01:46:29;77985.31;;;-144.09;95.14
8890;BME280;4481;43.406;24.454;2023-02-19T01:48:58;77983.22;;;-144.09;94.97
8890;BME280;4481;43.406;24.454;2023-02-19T01:51:25;77968.59;;;-144.09;94.57
8890;BME280;4481;43.406;24.454;2023-02-19T01:53:55;77995.75;;;-144.09;95.76
8890;BME280;4481;43.406;24.454;2023-02-19T01:56:22;78025.03;;;-144.09;96.43
8890;BME280;4481;43.406;24.454;2023-02-19T01:58:50;78029.22;;;-144.09;96.53
8890;BME280;4481;43.406;24.454;2023-02-19T02:01:17;78041.75;;;-144.09;97.00
8890;BME280;4481;43.406;24.454;2023-02-19T02:03:46;78052.22;;;-144.09;97.75
8890;BME280;4481;43.406;24.454;2023-02-19T02:06:17;78037.56;;;-144.09;97.32
8890;BME280;4481;43.406;24.454;2023-02-19T02:08:46;78037.56;;;-144.09;97.64
8890;BME280;4481;43.406;24.454;2023-02-19T02:11:31;78031.31;;;-144.09;97.45
8890;BME280;4481;43.406;24.454;2023-02-19T02:13:57;78048.03;;;-144.09;97.98
8890;BME280;4481;43.406;24.454;2023-02-19T02:16:28;78062.66;;;-144.09;98.30
8890;BME280;4481;43.406;24.454;2023-02-19T02:19:01;78064.75;;;-144.09;98.34
8890;BME280;4481;43.406;24.454;2023-02-19T02:27:37;78050.13;;;-144.09;96.86
8890;BME280;4481;43.406;24.454;2023-02-19T02:30:12;78043.84;;;-144.09;95.89
8890;BME280;4481;43.406;24.454;2023-02-19T02:32:44;78073.09;;;-144.09;96.81
8890;BME280;4481;43.406;24.454;2023-02-19T02:35:20;78083.56;;;-144.09;97.22
8890;BME280;4481;43.406;24.454;2023-02-19T02:37:47;78102.38;;;-144.09;97.67
8890;BME280;4481;43.406;24.454;2023-02-19T02:40:14;78104.47;;;-144.09;97.67
8890;BME280;4481;43.406;24.454;2023-02-19T02:42:42;78112.84;;;-144.09;98.18
8890;BME280;4481;43.406;24.454;2023-02-19T02:45:22;78100.28;;;-144.09;97.67
8890;BME280;4481;43.406;24.454;2023-02-19T02:48:08;78089.84;;;-144.09;97.40
8890;BME280;4481;43.406;24.454;2023-02-19T02:50:39;78089.84;;;-144.09;97.46
8890;BME280;4481;43.406;24.454;2023-02-19T02:53:10;78100.28;;;-144.09;98.27
8890;BME280;4481;43.406;24.454;2023-02-19T02:55:56;78104.47;;;-144.09;98.41
8890;BME280;4481;43.406;24.454;2023-02-19T02:58:26;78075.19;;;-144.09;98.02
8890;BME280;4481;43.406;24.454;2023-02-19T03:00:56;78050.13;;;-144.09;97.28
8890;BME280;4481;43.406;24.454;2023-02-19T03:03:52;78006.22;;;-144.09;96.44
8890;BME280;4481;43.406;24.454;2023-02-19T03:06:21;77981.13;;;-144.09;95.61
8890;BME280;4481;43.406;24.454;2023-02-19T03:08:53;77953.97;;;-144.09;94.84
8890;BME280;4481;43.406;24.454;2023-02-19T03:11:21;77935.13;;;-144.09;94.22
8890;BME280;4481;43.406;24.454;2023-02-19T03:14:15;77914.25;;;-144.09;93.65
8890;BME280;4481;43.406;24.454;2023-02-19T03:17:06;77897.50;;;-144.09;93.19
8890;BME280;4481;43.406;24.454;2023-02-19T03:20:06;77866.16;;;-144.09;92.86
8890;BME280;4481;43.406;24.454;2023-02-19T03:22:35;77847.34;;;-144.09;92.67
8890;BME280;4481;43.406;24.454;2023-02-19T03:25:06;77805.53;;;-144.09;92.04
8890;BME280;4481;43.406;24.454;2023-02-19T03:27:55;77765.81;;;-144.09;90.93
8890;BME280;4481;43.406;24.454;2023-02-19T03:30:26;77726.09;;;-144.09;90.48
8890;BME280;4481;43.406;24.454;2023-02-19T03:32:57;77673.84;;;-144.09;88.33
8890;BME280;4481;43.406;24.454;2023-02-19T03:35:26;77634.13;;;-144.09;87.60
8890;BME280;4481;43.406;24.454;2023-02-19T03:38:00;77609.06;;;-144.09;86.81
8890;BME280;4481;43.406;24.454;2023-02-19T03:40:30;77573.53;;;-144.09;85.19
8890;BME280;4481;43.406;24.454;2023-02-19T03:43:04;77556.81;;;-144.09;84.39
8890;BME280;4481;43.406;24.454;2023-02-19T03:45:43;77529.63;;;-144.09;83.42
8890;BME280;4481;43.406;24.454;2023-02-19T03:48:29;77510.81;;;-144.09;82.75
8890;BME280;4481;43.406;24.454;2023-02-19T03:51:03;77500.38;;;-144.09;82.21
8890;BME280;4481;43.406;24.454;2023-02-19T03:53:37;77492.00;;;-144.09;82.15
8890;BME280;4481;43.406;24.454;2023-02-19T03:56:08;77471.09;;;-144.09;81.49
8890;BME280;4481;43.406;24.454;2023-02-19T03:58:41;77464.84;;;-144.09;81.11
8890;BME280;4481;43.406;24.454;2023-02-19T04:01:12;77454.38;;;-144.09;81.00
8890;BME280;4481;43.406;24.454;2023-02-19T04:03:45;77448.13;;;-144.09;80.47
8890;BME280;4481;43.406;24.454;2023-02-19T04:06:17;77427.22;;;-144.09;79.74
8890;BME280;4481;43.406;24.454;2023-02-19T04:08:48;77406.31;;;-144.09;79.05
8890;BME280;4481;43.406;24.454;2023-02-19T04:11:18;77395.88;;;-144.09;78.79
8890;BME280;4481;43.406;24.454;2023-02-19T04:13:48;77366.59;;;-144.09;77.56
8890;BME280;4481;43.406;24.454;2023-02-19T04:16:19;77351.97;;;-144.09;77.23
8890;BME280;4481;43.406;24.454;2023-02-19T04:18:51;77335.25;;;-144.09;76.43
8890;BME280;4481;43.406;24.454;2023-02-19T04:21:20;77322.72;;;-144.09;75.75
8890;BME280;4481;43.406;24.454;2023-02-19T04:23:47;77306.00;;;-144.09;75.41
8890;BME280;4481;43.406;24.454;2023-02-19T04:26:14;77318.53;;;-144.09;75.82
8890;BME280;4481;43.406;24.454;2023-02-19T04:28:42;77320.63;;;-144.09;75.95
8890;BME280;4481;43.406;24.454;2023-02-19T04:31:09;77322.72;;;-144.09;75.72
8890;BME280;4481;43.406;24.454;2023-02-19T04:33:35;77316.44;;;-144.09;75.14
8890;BME280;4481;43.406;24.454;2023-02-19T04:36:03;77326.88;;;-144.09;75.57
8890;BME280;4481;43.406;24.454;2023-02-19T04:38:30;77331.06;;;-144.09;75.64
8890;BME280;4481;43.406;24.454;2023-02-19T04:40:56;77343.59;;;-144.09;75.76
8890;BME280;4481;43.406;24.454;2023-02-19T04:43:22;77333.16;;;-144.09;75.47
8890;BME280;4481;43.406;24.454;2023-02-19T04:45:49;77347.78;;;-144.09;75.77
8890;BME280;4481;43.406;24.454;2023-02-19T04:48:15;77343.59;;;-144.09;75.65
8890;BME280;4481;43.406;24.454;2023-02-19T04:50:41;77339.44;;;-144.09;75.41
8890;BME280;4481;43.406;24.454;2023-02-19T04:53:08;77345.69;;;-144.09;75.57
8890;BME280;4481;43.406;24.454;2023-02-19T04:55:36;77354.06;;;-144.09;75.84
8890;BME280;4481;43.406;24.454;2023-02-19T04:58:02;77372.88;;;-144.09;76.52
8890;BME280;4481;43.406;24.454;2023-02-19T05:00:29;77379.13;;;-144.09;76.63
8890;BME280;4481;43.406;24.454;2023-02-19T05:02:56;77381.22;;;-144.09;76.98
8890;BME280;4481;43.406;24.454;2023-02-19T05:05:22;77391.69;;;-144.09;77.32
8890;BME280;4481;43.406;24.454;2023-02-19T05:07:48;77377.06;;;-144.09;77.03
8890;BME280;4481;43.406;24.454;2023-02-19T05:10:15;77391.69;;;-144.09;77.63
8890;BME280;4481;43.406;24.454;2023-02-19T05:12:41;77404.22;;;-144.09;78.11
8890;BME280;4481;43.406;24.454;2023-02-19T05:15:07;77441.84;;;-144.09;79.38
8890;BME280;4481;43.406;24.454;2023-02-19T05:17:33;77441.84;;;-144.09;79.30
8890;BME280;4481;43.406;24.454;2023-02-19T05:20:00;77433.47;;;-144.09;79.59
8890;BME280;4481;43.406;24.454;2023-02-19T05:22:27;77435.56;;;-144.09;79.44
8890;BME280;4481;43.406;24.454;2023-02-19T05:24:53;77425.13;;;-144.09;78.82
8890;BME280;4481;43.406;24.454;2023-02-19T05:27:21;77420.94;;;-144.09;78.54
8890;BME280;4481;43.406;24.454;2023-02-19T05:29:47;77425.13;;;-144.09;78.48
8890;BME280;4481;43.406;24.454;2023-02-19T05:32:13;77420.94;;;-144.09;78.36
8890;BME280;4481;43.406;24.454;2023-02-19T05:34:39;77431.38;;;-144.09;78.77
8890;BME280;4481;43.406;24.454;2023-02-19T05:37:05;77420.94;;;-144.09;78.39
8890;BME280;4481;43.406;24.454;2023-02-19T05:39:31;77425.13;;;-144.09;78.42
8890;BME280;4481;43.406;24.454;2023-02-19T05:41:57;77433.47;;;-144.09;78.78
8890;BME280;4481;43.406;24.454;2023-02-19T05:44:24;77425.13;;;-144.09;78.91
8890;BME280;4481;43.406;24.454;2023-02-19T05:46:51;77427.22;;;-144.09;78.81
8890;BME280;4481;43.406;24.454;2023-02-19T05:49:17;77423.03;;;-144.09;78.92
8890;BME280;4481;43.406;24.454;2023-02-19T05:51:43;77408.41;;;-144.09;78.61
8890;BME280;4481;43.406;24.454;2023-02-19T05:54:09;77418.84;;;-144.09;79.01
8890;BME280;4481;43.406;24.454;2023-02-19T05:56:37;77404.22;;;-144.09;78.58
8890;BME280;4481;43.406;24.454;2023-02-19T05:59:05;77383.31;;;-144.09;78.44
8890;BME280;4481;43.406;24.454;2023-02-19T06:01:34;77381.22;;;-144.09;78.38
8890;BME280;4481;43.406;24.454;2023-02-19T06:04:00;77372.88;;;-144.09;78.51
8890;BME280;4481;43.406;24.454;2023-02-19T06:06:26;77372.88;;;-144.09;78.56
8890;BME280;4481;43.406;24.454;2023-02-19T06:08:53;77354.06;;;-144.09;78.01
8890;BME280;4481;43.406;24.454;2023-02-19T06:11:19;77354.06;;;-144.09;77.89
8890;BME280;4481;43.406;24.454;2023-02-19T06:13:46;77347.78;;;-144.09;77.81
8890;BME280;4481;43.406;24.454;2023-02-19T06:16:13;77328.97;;;-144.09;77.34
8890;BME280;4481;43.406;24.454;2023-02-19T06:18:42;77322.72;;;-144.09;77.23
8890;BME280;4481;43.406;24.454;2023-02-19T06:21:10;77312.25;;;-144.09;76.83
8890;BME280;4481;43.406;24.454;2023-02-19T06:23:36;77295.53;;;-144.09;76.56
8890;BME280;4481;43.406;24.454;2023-02-19T06:26:07;77293.44;;;-144.09;76.78
8890;BME280;4481;43.406;24.454;2023-02-19T06:28:34;77293.44;;;-144.09;76.50
8890;BME280;4481;43.406;24.454;2023-02-19T06:31:00;77293.44;;;-144.09;76.42
8890;BME280;4481;43.406;24.454;2023-02-19T06:33:27;77283.00;;;-144.09;75.97
8890;BME280;4481;43.406;24.454;2023-02-19T06:35:56;77272.56;;;-144.09;75.74
8890;BME280;4481;43.406;24.454;2023-02-19T06:38:23;77253.75;;;-144.09;75.65
8890;BME280;4481;43.406;24.454;2023-02-19T06:40:50;77241.19;;;-144.09;75.24
8890;BME280;4481;43.406;24.454;2023-02-19T06:43:16;77228.66;;;-144.09;75.04
8890;BME280;4481;43.406;24.454;2023-02-19T06:45:43;77207.75;;;-144.09;74.41
8890;BME280;4481;43.406;24.454;2023-02-19T06:48:09;77186.84;;;-144.09;73.74
8890;BME280;4481;43.406;24.454;2023-02-19T06:50:35;77174.31;;;-144.09;73.47
8890;BME280;4481;43.406;24.454;2023-02-19T06:53:02;77161.78;;;-144.09;72.91
8890;BME280;4481;43.406;24.454;2023-02-19T06:55:29;77157.59;;;-144.09;73.07
8890;BME280;4481;43.406;24.454;2023-02-19T06:57:55;77132.53;;;-144.09;72.41
8890;BME280;4481;43.406;24.454;2023-02-19T07:00:21;77130.44;;;-144.09;72.82
8890;BME280;4481;43.406;24.454;2023-02-19T07:02:47;77107.44;;;-144.09;72.27
8890;BME280;4481;43.406;24.454;2023-02-19T07:05:14;77094.91;;;-144.09;72.09
8890;BME280;4481;43.406;24.454;2023-02-19T07:07:40;77074.00;;;-144.09;71.59
8890;BME280;4481;43.406;24.454;2023-02-19T07:10:07;77057.28;;;-144.09;71.29
8890;BME280;4481;43.406;24.454;2023-02-19T07:12:33;77044.75;;;-144.09;71.15
8890;BME280;4481;43.406;24.454;2023-02-19T07:14:59;77040.56;;;-144.09;70.57
8890;BME280;4481;43.406;24.454;2023-02-19T07:17:25;77032.22;;;-144.09;70.17
8890;BME280;4481;43.406;24.454;2023-02-19T07:19:52;77023.84;;;-144.09;70.13
8890;BME280;4481;43.406;24.454;2023-02-19T07:22:18;77009.22;;;-144.09;69.80
8890;BME280;4481;43.406;24.454;2023-02-19T07:24:44;76992.50;;;-144.09;69.71
8890;BME280;4481;43.406;24.454;2023-02-19T07:27:11;76988.31;;;-144.09;69.61
8890;BME280;4481;43.406;24.454;2023-02-19T07:29:37;76977.88;;;-144.09;69.69
8890;BME280;4481;43.406;24.454;2023-02-19T07:32:03;76954.88;;;-144.09;68.92
8890;BME280;4481;43.406;24.454;2023-02-19T07:34:29;76934.00;;;-144.09;68.52
8890;BME280;4481;43.406;24.454;2023-02-19T07:36:55;76919.34;;;-144.09;68.15
8890;BME280;4481;43.406;24.454;2023-02-19T07:39:22;76904.72;;;-144.09;68.25
8890;BME280;4481;43.406;24.454;2023-02-19T07:41:48;76904.72;;;-144.09;67.68
8890;BME280;4481;43.406;24.454;2023-02-19T07:44:15;76902.63;;;-144.09;67.00
8890;BME280;4481;43.406;24.454;2023-02-19T07:46:41;76904.72;;;-144.09;67.54
8890;BME280;4481;43.406;24.454;2023-02-19T07:49:07;76885.91;;;-144.09;67.50
8890;BME280;4481;43.406;24.454;2023-02-19T07:51:34;76879.66;;;-144.09;67.52
8890;BME280;4481;43.406;24.454;2023-02-19T07:54:00;76865.03;;;-144.09;66.71
8890;BME280;4481;43.406;24.454;2023-02-19T07:56:26;76854.56;;;-144.09;66.91
8890;BME280;4481;43.406;24.454;2023-02-19T07:58:53;76837.84;;;-144.09;66.80
8890;BME280;4481;43.406;24.454;2023-02-19T08:01:21;76833.69;;;-144.09;66.49
8890;BME280;4481;43.406;24.454;2023-02-19T08:04:10;76821.13;;;-144.09;66.24
8890;BME280;4481;43.406;24.454;2023-02-19T08:06:36;76816.97;;;-144.09;66.11
8890;BME280;4481;43.406;24.454;2023-02-19T08:09:02;76798.16;;;-144.09;66.04
8890;BME280;4481;43.406;24.454;2023-02-19T08:11:28;76791.88;;;-144.09;65.63
8890;BME280;4481;43.406;24.454;2023-02-19T08:14:12;76793.97;;;-144.09;66.21
8890;BME280;4481;43.406;24.454;2023-02-19T08:16:39;76781.44;;;-144.09;65.42
8890;BME280;4481;43.406;24.454;2023-02-19T08:19:05;76773.06;;;-144.09;65.71
8890;BME280;4481;43.406;24.454;2023-02-19T08:21:31;76766.81;;;-144.09;65.08
8890;BME280;4481;43.406;24.454;2023-02-19T08:23:57;76777.25;;;-144.09;65.12
8890;BME280;4481;43.406;24.454;2023-02-19T08:26:23;76741.72;;;-144.09;65.08
8890;BME280;4481;43.406;24.454;2023-02-19T08:28:49;76739.63;;;-144.09;64.82
8890;BME280;4481;43.406;24.454;2023-02-19T08:31:16;76712.47;;;-144.09;64.13
8890;BME280;4481;43.406;24.454;2023-02-19T08:33:42;76725.00;;;-144.09;63.07
8890;BME280;4481;43.406;24.454;2023-02-19T08:36:10;76718.75;;;-144.09;63.55
8890;BME280;4481;43.406;24.454;2023-02-19T08:38:36;76710.38;;;-144.09;63.43
8890;BME280;4481;43.406;24.454;2023-02-19T08:41:04;76685.31;;;-144.09;63.29
8890;BME280;4481;43.406;24.454;2023-02-19T08:43:31;76672.78;;;-144.09;63.16
8890;BME280;4481;43.406;24.454;2023-02-19T08:45:57;76643.53;;;-144.09;61.61
8890;BME280;4481;43.406;24.454;2023-02-19T08:48:23;76647.69;;;-144.09;61.81
8890;BME280;4481;43.406;24.454;2023-02-19T08:50:54;76628.91;;;-144.09;62.03
8890;BME280;4481;43.406;24.454;2023-02-19T08:53:21;76633.06;;;-144.09;60.99
8890;BME280;4481;43.406;24.454;2023-02-19T08:55:47;76633.06;;;-144.09;60.64
8890;BME280;4481;43.406;24.454;2023-02-19T08:58:13;76628.91;;;-144.09;61.64
8890;BME280;4481;43.406;24.454;2023-02-19T09:00:39;76605.91;;;-144.09;60.93
8890;BME280;4481;43.406;24.454;2023-02-19T09:03:05;76597.56;;;-144.09;60.52
8890;BME280;4481;43.406;24.454;2023-02-19T09:05:32;76591.28;;;-144.09;59.91
8890;BME280;4481;43.406;24.454;2023-02-19T09:07:59;76591.28;;;-144.09;58.51
8890;BME280;4481;43.406;24.454;2023-02-19T09:10:26;76599.63;;;-144.09;58.46
8890;BME280;4481;43.406;24.454;2023-02-19T09:12:52;76599.63;;;-144.09;58.23
8890;BME280;4481;43.406;24.454;2023-02-19T09:15:18;76605.91;;;-144.09;57.09
8890;BME280;4481;43.406;24.454;2023-02-19T09:17:44;76616.34;;;-144.09;57.29
8890;BME280;4481;43.406;24.454;2023-02-19T09:20:15;76610.09;;;-144.09;57.62
8890;BME280;4481;43.406;24.454;2023-02-19T09:22:41;76593.38;;;-144.09;57.18
8890;BME280;4481;43.406;24.454;2023-02-19T09:25:08;76603.81;;;-144.09;57.56
8890;BME280;4481;43.406;24.454;2023-02-19T09:27:34;76585.00;;;-144.09;58.30
8890;BME280;4481;43.406;24.454;2023-02-19T09:30:01;76585.00;;;-144.09;58.52
8890;BME280;4481;43.406;24.454;2023-02-19T09:32:29;76589.19;;;-144.09;58.46
8890;BME280;4481;43.406;24.454;2023-02-19T09:34:56;76587.09;;;-144.09;58.80
8890;BME280;4481;43.406;24.454;2023-02-19T09:37:24;76568.28;;;-144.09;57.55
8890;BME280;4481;43.406;24.454;2023-02-19T09:39:51;76570.38;;;-144.09;57.31
8890;BME280;4481;43.406;24.454;2023-02-19T09:42:20;76553.66;;;-144.09;55.66
8890;BME280;4481;43.406;24.454;2023-02-19T09:44:49;76564.13;;;-144.09;55.64
8890;BME280;4481;43.406;24.454;2023-02-19T09:47:17;76572.47;;;-144.09;55.81
8890;BME280;4481;43.406;24.454;2023-02-19T09:49:46;76589.19;;;-144.09;55.34
8890;BME280;4481;43.406;24.454;2023-02-19T09:52:22;76557.84;;;-144.09;55.40
8890;BME280;4481;43.406;24.454;2023-02-19T09:54:50;76559.94;;;-144.09;54.61
8890;BME280;4481;43.406;24.454;2023-02-19T09:57:19;76570.38;;;-144.09;55.18
8890;BME280;4481;43.406;24.454;2023-02-19T09:59:49;76555.75;;;-144.09;55.88
8890;BME280;4481;43.406;24.454;2023-02-19T10:02:17;76551.56;;;-144.09;56.30
8890;BME280;4481;43.406;24.454;2023-02-19T10:04:47;76564.13;;;-144.09;55.64
8890;BME280;4481;43.406;24.454;2023-02-19T10:07:17;76555.75;;;-144.09;55.69
8890;BME280;4481;43.406;24.454;2023-02-19T10:09:44;76551.56;;;-144.09;55.98
8890;BME280;4481;43.406;24.454;2023-02-19T10:12:15;76526.50;;;-144.09;56.53
8890;BME280;4481;43.406;24.454;2023-02-19T10:14:45;76528.59;;;-144.09;55.77
8890;BME280;4481;43.406;24.454;2023-02-19T10:17:20;76501.44;;;-144.09;55.24
8890;BME280;4481;43.406;24.454;2023-02-19T10:19:47;76488.88;;;-144.09;56.05
8890;BME280;4481;43.406;24.454;2023-02-19T10:22:14;76480.53;;;-144.09;56.53
8890;BME280;4481;43.406;24.454;2023-02-19T10:24:41;76480.53;;;-144.09;55.60
8890;BME280;4481;43.406;24.454;2023-02-19T10:27:11;76478.44;;;-144.09;55.28
8890;BME280;4481;43.406;24.454;2023-02-19T10:29:37;76463.81;;;-144.09;55.68
8890;BME280;4481;43.406;24.454;2023-02-19T10:32:15;76463.81;;;-144.09;54.89
8890;BME280;4481;43.406;24.454;2023-02-19T10:34:44;76445.00;;;-144.09;54.62
8890;BME280;4481;43.406;24.454;2023-02-19T10:37:13;76447.09;;;-144.09;55.54
8890;BME280;4481;43.406;24.454;2023-02-19T10:39:42;76430.38;;;-144.09;56.08
8890;BME280;4481;43.406;24.454;2023-02-19T10:42:17;76422.03;;;-144.09;55.19
8890;BME280;4481;43.406;24.454;2023-02-19T10:44:47;76415.75;;;-144.09;54.63
8890;BME280;4481;43.406;24.454;2023-02-19T10:47:17;76392.78;;;-144.09;55.10
8890;BME280;4481;43.406;24.454;2023-02-19T10:49:44;76399.03;;;-144.09;54.24
8890;BME280;4481;43.406;24.454;2023-02-19T10:52:15;76413.66;;;-144.09;54.66
8890;BME280;4481;43.406;24.454;2023-02-19T10:54:43;76411.56;;;-144.09;55.00
8890;BME280;4481;43.406;24.454;2023-02-19T10:57:25;76380.25;;;-144.09;54.81
8890;BME280;4481;43.406;24.454;2023-02-19T10:59:57;76390.69;;;-144.09;54.34
8890;BME280;4481;43.406;24.454;2023-02-19T11:02:24;76386.50;;;-144.09;54.47
8890;BME280;4481;43.406;24.454;2023-02-19T11:05:16;76403.22;;;-144.09;55.05
8890;BME280;4481;43.406;24.454;2023-02-19T11:07:46;76401.13;;;-144.09;55.47
8890;BME280;4481;43.406;24.454;2023-02-19T11:10:22;76401.13;;;-144.09;53.85
8890;BME280;4481;43.406;24.454;2023-02-19T11:12:52;76419.94;;;-144.09;54.10
8890;BME280;4481;43.406;24.454;2023-02-19T11:15:22;76424.13;;;-144.09;54.63
8890;BME280;4481;43.406;24.454;2023-02-19T11:17:58;76415.75;;;-144.09;55.29
8890;BME280;4481;43.406;24.454;2023-02-19T11:20:27;76417.84;;;-144.09;55.88
8890;BME280;4481;43.406;24.454;2023-02-19T11:22:57;76434.56;;;-144.09;55.76
8890;BME280;4481;43.406;24.454;2023-02-19T11:25:24;76428.28;;;-144.09;55.56
8890;BME280;4481;43.406;24.454;2023-02-19T11:27:56;76428.28;;;-144.09;55.74
8890;BME280;4481;43.406;24.454;2023-02-19T11:30:35;76430.38;;;-144.09;56.08
8890;BME280;4481;43.406;24.454;2023-02-19T11:33:21;76432.47;;;-144.09;56.89
8890;BME280;4481;43.406;24.454;2023-02-19T11:35:49;76419.94;;;-144.09;57.14
8890;BME280;4481;43.406;24.454;2023-02-19T11:38:18;76399.03;;;-144.09;56.70
8890;BME280;4481;43.406;24.454;2023-02-19T11:40:49;76378.16;;;-144.09;56.57
8890;BME280;4481;43.406;24.454;2023-02-19T11:43:46;76348.91;;;-144.09;55.39
8890;BME280;4481;43.406;24.454;2023-02-19T11:46:16;76342.63;;;-144.09;54.41
8890;BME280;4481;43.406;24.454;2023-02-19T11:48:51;76342.63;;;-144.09;54.37
8890;BME280;4481;43.406;24.454;2023-02-19T11:51:33;76363.53;;;-144.09;54.43
8890;BME280;4481;43.406;24.454;2023-02-19T11:54:09;76373.97;;;-144.09;54.35
8890;BME280;4481;43.406;24.454;2023-02-19T11:56:40;76371.88;;;-144.09;54.70
8890;BME280;4481;43.406;24.454;2023-02-19T11:59:14;76359.34;;;-144.09;54.23
8890;BME280;4481;43.406;24.454;2023-02-19T12:01:57;76350.97;;;-144.09;53.44
8890;BME280;4481;43.406;24.454;2023-02-19T12:10:32;76334.28;;;-144.09;53.75
8890;BME280;4481;43.406;24.454;2023-02-19T12:13:09;76319.66;;;-144.09;53.32
8890;BME280;4481;43.406;24.454;2023-02-19T12:15:54;76323.81;;;-144.09;52.51
8890;BME280;4481;43.406;24.454;2023-02-19T12:18:55;76359.34;;;-144.09;53.56
8890;BME280;4481;43.406;24.454;2023-02-19T12:21:36;76378.16;;;-144.09;54.51
8890;BME280;4481;43.406;24.454;2023-02-19T12:24:37;76367.69;;;-144.09;54.44
8890;BME280;4481;43.406;24.454;2023-02-19T12:27:19;76359.34;;;-144.09;54.34
8890;BME280;4481;43.406;24.454;2023-02-19T12:30:12;76353.06;;;-144.09;54.30
8890;BME280;4481;43.406;24.454;2023-02-19T12:32:54;76361.44;;;-144.09;54.22
8890;BME280;4481;43.406;24.454;2023-02-19T12:35:37;76363.53;;;-144.09;54.96
8890;BME280;4481;43.406;24.454;2023-02-19T12:38:17;76355.16;;;-144.09;55.14
8890;BME280;4481;43.406;24.454;2023-02-19T12:40:57;76365.63;;;-144.09;56.07
8890;BME280;4481;43.406;24.454;2023-02-19T12:43:28;76357.25;;;-144.09;55.09
8890;BME280;4481;43.406;24.454;2023-02-19T12:45:57;76344.72;;;-144.09;55.12
8890;BME280;4481;43.406;24.454;2023-02-19T12:48:28;76323.81;;;-144.09;55.20
8890;BME280;4481;43.406;24.454;2023-02-19T12:51:03;76313.38;;;-144.09;54.15
8890;BME280;4481;43.406;24.454;2023-02-19T12:53:38;76311.28;;;-144.09;54.83
8890;BME280;4481;43.406;24.454;2023-02-19T12:56:12;76298.75;;;-144.09;55.02
8890;BME280;4481;43.406;24.454;2023-02-19T12:58:43;76277.84;;;-144.09;54.24
8890;BME280;4481;43.406;24.454;2023-02-19T13:01:14;76267.41;;;-144.09;54.15
8890;BME280;4481;43.406;24.454;2023-02-19T13:03:47;76254.88;;;-144.09;53.68
8890;BME280;4481;43.406;24.454;2023-02-19T13:06:25;76271.59;;;-144.09;53.71
8890;BME280;4481;43.406;24.454;2023-02-19T13:08:59;76275.75;;;-144.09;53.92
8890;BME280;4481;43.406;24.454;2023-02-19T13:11:32;76261.13;;;-144.09;53.78
8890;BME280;4481;43.406;24.454;2023-02-19T13:14:04;76275.75;;;-144.09;53.65
8890;BME280;4481;43.406;24.454;2023-02-19T13:16:33;76269.50;;;-144.09;53.32